createdAt,value
2022-10-09T00:02:29.515Z,6.68
2022-10-09T00:05:15.894Z,7.97
2022-10-09T00:08:01.925Z,5.60
2022-10-09T00:10:50.080Z,5.20
2022-10-09T00:13:36.393Z,5.28
2022-10-09T00:16:22.997Z,10.48
2022-10-09T00:19:09.287Z,12.93
2022-10-09T00:21:55.648Z,6.70
2022-10-09T00:24:42.516Z,11.23
2022-10-09T00:27:28.509Z,7.13
2022-10-09T00:30:14.881Z,5.63
2022-10-09T00:33:01.114Z,8.98
2022-10-09T00:35:47.966Z,4.82
2022-10-09T00:38:34.001Z,14.57
2022-10-09T00:41:25.005Z,6.35
2022-10-09T00:44:30.197Z,8.85
2022-10-09T00:47:28.801Z,6.30
2022-10-09T00:50:24.169Z,6.20
2022-10-09T00:53:12.807Z,8.25
2022-10-09T00:55:59.202Z,2.80
2022-10-09T00:58:45.998Z,7.82
2022-10-09T01:01:32.285Z,8.40
2022-10-09T01:04:18.421Z,9.88
2022-10-09T01:07:22.758Z,3.00
2022-10-09T01:10:27.732Z,6.60
2022-10-09T01:13:22.730Z,5.85
2022-10-09T01:16:29.385Z,6.47
2022-10-09T01:19:21.762Z,7.38
2022-10-09T01:25:13.854Z,9.00
2022-10-09T01:28:01.257Z,11.63
2022-10-09T01:30:47.541Z,2.10
2022-10-09T01:33:34.200Z,6.63
2022-10-09T01:36:20.939Z,2.15
2022-10-09T01:39:08.162Z,2.42
2022-10-09T01:41:54.985Z,6.95
2022-10-09T01:44:41.543Z,5.13
2022-10-09T01:47:27.596Z,4.68
2022-10-09T01:50:34.619Z,2.78
2022-10-09T01:53:21.180Z,2.08
2022-10-09T01:56:14.894Z,6.88
2022-10-09T01:59:06.919Z,3.67
2022-10-09T02:01:53.700Z,5.38
2022-10-09T02:04:41.830Z,6.40
2022-10-09T02:07:28.661Z,8.43
2022-10-09T02:10:18.047Z,6.85
2022-10-09T02:13:04.397Z,8.02
2022-10-09T02:15:57.702Z,10.10
2022-10-09T02:18:47.844Z,1.65
2022-10-09T02:21:37.168Z,8.13
2022-10-09T02:24:24.004Z,6.15
2022-10-09T02:27:17.654Z,6.80
2022-10-09T02:30:04.543Z,1.35
2022-10-09T02:32:56.564Z,7.47
2022-10-09T02:35:43.014Z,5.05
2022-10-09T02:38:28.992Z,5.13
2022-10-09T02:41:15.527Z,2.15
2022-10-09T02:44:02.361Z,12.02
2022-10-09T02:46:51.436Z,7.30
2022-10-09T02:49:37.679Z,6.40
2022-10-09T02:52:24.095Z,7.07
2022-10-09T02:55:09.918Z,6.57
2022-10-09T02:57:56.100Z,4.07
2022-10-09T03:00:42.636Z,5.03
2022-10-09T03:03:29.216Z,5.82
2022-10-09T03:06:17.464Z,7.50
2022-10-09T03:09:22.159Z,3.92
2022-10-09T03:12:08.345Z,1.58
2022-10-09T03:14:54.925Z,8.20
2022-10-09T03:17:44.378Z,4.18
2022-10-09T03:20:31.269Z,6.25
2022-10-09T03:23:17.431Z,1.02
2022-10-09T03:26:07.325Z,1.27
2022-10-09T03:29:12.163Z,5.28
2022-10-09T03:31:58.385Z,2.53
2022-10-09T03:34:44.454Z,6.00
2022-10-09T03:37:31.703Z,5.43
2022-10-09T03:40:18.546Z,9.88
2022-10-09T03:43:04.756Z,5.95
2022-10-09T03:45:51.095Z,5.70
2022-10-09T03:48:37.213Z,1.10
2022-10-09T03:51:23.251Z,5.55
2022-10-09T03:54:09.540Z,3.22
2022-10-09T03:56:55.629Z,7.22
2022-10-09T03:59:41.796Z,3.85
2022-10-09T04:02:27.891Z,4.90
2022-10-09T04:05:14.015Z,8.63
2022-10-09T04:08:00.393Z,7.05
2022-10-09T04:10:46.166Z,7.75
2022-10-09T04:13:32.326Z,1.70
2022-10-09T04:16:18.441Z,9.45
2022-10-09T04:19:04.810Z,6.90
2022-10-09T04:21:51.049Z,5.45
2022-10-09T04:24:37.185Z,6.55
2022-10-09T04:27:23.335Z,8.27
2022-10-09T04:30:10.841Z,2.05
2022-10-09T04:32:56.880Z,7.85
2022-10-09T04:35:43.693Z,8.10
2022-10-09T04:38:31.307Z,6.45
2022-10-09T04:41:17.766Z,5.20
2022-10-09T04:44:04.127Z,4.82
2022-10-09T04:46:51.614Z,10.13
2022-10-09T04:49:37.676Z,10.70
2022-10-09T04:52:23.828Z,4.75
2022-10-09T04:55:28.350Z,2.17
2022-10-09T04:58:14.716Z,6.75
2022-10-09T05:01:00.977Z,2.08
2022-10-09T05:03:47.620Z,5.95
2022-10-09T05:06:33.610Z,1.95
2022-10-09T05:09:19.805Z,7.88
2022-10-09T05:12:06.000Z,9.70
2022-10-09T05:14:52.147Z,12.02
2022-10-09T05:17:38.416Z,3.30
2022-10-09T05:20:24.800Z,15.13
2022-10-09T05:23:11.092Z,47.55
2022-10-09T05:25:58.028Z,15.68
2022-10-09T05:29:02.920Z,5.03
2022-10-09T05:31:49.736Z,1.90
2022-10-09T05:34:35.794Z,10.38
2022-10-09T05:37:22.090Z,7.97
2022-10-09T05:40:29.193Z,7.63
2022-10-09T05:43:15.746Z,7.35
2022-10-09T05:46:26.812Z,6.95
2022-10-09T05:49:12.739Z,8.02
2022-10-09T05:51:58.971Z,9.77
2022-10-09T05:54:45.245Z,15.00
2022-10-09T05:57:31.511Z,16.02
2022-10-09T06:00:17.866Z,12.82
2022-10-09T06:03:04.366Z,11.57
2022-10-09T06:05:50.520Z,10.35
2022-10-09T06:08:39.862Z,13.23
2022-10-09T06:11:28.643Z,8.40
2022-10-09T06:14:14.993Z,9.82
2022-10-09T06:17:01.810Z,11.73
2022-10-09T06:19:47.698Z,13.43
2022-10-09T06:22:33.812Z,11.38
2022-10-09T06:25:19.881Z,14.85
2022-10-09T06:28:06.185Z,12.93
2022-10-09T06:30:52.306Z,13.93
2022-10-09T06:33:39.952Z,17.25
2022-10-09T06:36:27.193Z,29.33
2022-10-09T06:39:13.473Z,15.68
2022-10-09T06:41:59.584Z,13.02
2022-10-09T06:44:57.481Z,14.18
2022-10-09T06:47:43.599Z,18.25
2022-10-09T06:50:29.828Z,8.60
2022-10-09T06:53:15.994Z,10.63
2022-10-09T06:56:02.129Z,10.23
2022-10-09T06:58:48.702Z,11.43
2022-10-09T07:01:35.135Z,11.05
2022-10-09T07:04:21.775Z,13.95
2022-10-09T07:07:08.076Z,13.10
2022-10-09T07:09:54.575Z,12.65
2022-10-09T07:12:40.678Z,12.30
2022-10-09T07:15:27.011Z,12.00
2022-10-09T07:18:12.991Z,7.30
2022-10-09T07:21:07.416Z,12.30
2022-10-09T07:23:56.472Z,16.08
2022-10-09T07:26:43.577Z,12.13
2022-10-09T07:29:29.920Z,14.68
2022-10-09T07:32:16.023Z,9.93
2022-10-09T07:35:02.227Z,9.77
2022-10-09T07:37:48.532Z,9.63
2022-10-09T07:40:35.613Z,9.10
2022-10-09T07:43:41.517Z,6.75
2022-10-09T07:46:32.930Z,11.98
2022-10-09T07:49:19.456Z,7.55
2022-10-09T07:52:05.368Z,5.00
2022-10-09T07:54:51.624Z,5.63
2022-10-09T07:57:37.889Z,5.28
2022-10-09T08:00:24.317Z,5.20
2022-10-09T08:03:10.766Z,11.50
2022-10-09T08:05:57.131Z,7.05
2022-10-09T08:08:43.299Z,7.97
2022-10-09T08:11:29.883Z,9.82
2022-10-09T08:14:19.207Z,9.73
2022-10-09T08:17:05.425Z,10.80
2022-10-09T08:19:51.646Z,11.80
2022-10-09T08:22:37.903Z,11.40
2022-10-09T08:25:23.983Z,17.80
2022-10-09T08:28:10.262Z,17.10
2022-10-09T08:31:16.332Z,12.98
2022-10-09T08:34:03.187Z,14.73
2022-10-09T08:36:49.525Z,13.38
2022-10-09T08:39:35.644Z,15.10
2022-10-09T08:42:40.044Z,14.90
2022-10-09T08:45:26.259Z,13.55
2022-10-09T08:48:14.954Z,19.77
2022-10-09T08:51:01.578Z,13.43
2022-10-09T08:53:50.490Z,10.52
2022-10-09T08:56:40.818Z,17.65
2022-10-09T08:59:27.006Z,15.52
2022-10-09T09:02:12.886Z,13.27
2022-10-09T09:04:58.971Z,14.90
2022-10-09T09:07:55.227Z,18.70
2022-10-09T09:10:53.104Z,14.80
2022-10-09T09:13:58.163Z,12.18
2022-10-09T09:16:50.143Z,17.83
2022-10-09T09:19:56.994Z,10.70
2022-10-09T09:22:47.455Z,15.60
2022-10-09T09:25:35.616Z,14.07
2022-10-09T09:28:24.436Z,18.30
2022-10-09T09:31:19.018Z,15.00
2022-10-09T09:34:16.128Z,13.20
2022-10-09T09:37:02.405Z,10.85
2022-10-09T09:42:57.913Z,15.10
2022-10-09T09:45:46.706Z,15.13
2022-10-09T09:48:40.394Z,13.65
2022-10-09T09:51:30.020Z,18.98
2022-10-09T09:54:24.182Z,12.05
2022-10-09T09:57:15.886Z,21.92
2022-10-09T10:00:08.522Z,15.82
2022-10-09T10:03:04.284Z,12.07
2022-10-09T10:05:50.687Z,13.30
2022-10-09T10:08:36.749Z,16.80
2022-10-09T10:11:22.887Z,20.02
2022-10-09T10:14:09.520Z,15.05
2022-10-09T10:16:56.425Z,13.02
2022-10-09T10:19:49.959Z,12.80
2022-10-09T10:22:35.964Z,13.55
2022-10-09T10:25:24.727Z,11.90
2022-10-09T10:28:18.071Z,9.18
2022-10-09T10:31:06.196Z,11.38
2022-10-09T10:33:55.034Z,11.85
2022-10-09T10:36:41.202Z,9.20
2022-10-09T10:39:31.904Z,9.70
2022-10-09T10:42:47.313Z,11.73
2022-10-09T10:45:52.125Z,9.63
2022-10-09T10:48:42.936Z,6.38
2022-10-09T10:51:49.009Z,10.02
2022-10-09T10:54:58.515Z,10.63
2022-10-09T10:58:03.008Z,9.20
2022-10-09T11:01:09.638Z,9.45
2022-10-09T11:04:09.284Z,6.35
2022-10-09T11:07:00.835Z,11.63
2022-10-09T11:10:05.621Z,9.20
2022-10-09T11:12:57.979Z,13.63
2022-10-09T11:15:57.971Z,10.00
2022-10-09T11:18:47.166Z,9.80
2022-10-09T11:21:47.881Z,9.65
2022-10-09T11:24:34.162Z,8.63
2022-10-09T11:27:25.607Z,12.90
2022-10-09T11:30:13.613Z,9.60
2022-10-09T11:33:03.081Z,12.27
2022-10-09T11:35:58.068Z,12.75
2022-10-09T11:38:46.078Z,12.20
2022-10-09T11:41:33.409Z,11.63
2022-10-09T11:44:26.760Z,8.75
2022-10-09T11:47:26.710Z,12.65
2022-10-09T11:50:18.801Z,9.82
2022-10-09T11:53:10.199Z,10.60
2022-10-09T11:56:19.244Z,10.98
2022-10-09T11:59:06.463Z,15.27
2022-10-09T12:01:53.065Z,10.95
2022-10-09T12:04:55.503Z,10.43
2022-10-09T12:07:42.499Z,11.55
2022-10-09T12:10:33.833Z,10.57
2022-10-09T12:13:31.164Z,12.13
2022-10-09T12:16:32.861Z,14.18
2022-10-09T12:19:19.715Z,13.02
2022-10-09T12:22:13.634Z,14.55
2022-10-09T12:25:05.135Z,8.88
2022-10-09T12:27:55.570Z,12.40
2022-10-09T12:30:47.869Z,10.35
2022-10-09T12:33:36.945Z,8.23
2022-10-09T12:36:29.741Z,9.27
2022-10-09T12:39:20.232Z,7.82
2022-10-09T12:42:08.673Z,11.63
2022-10-09T12:44:55.599Z,10.85
2022-10-09T12:47:41.598Z,9.50
2022-10-09T12:50:31.449Z,10.38
2022-10-09T12:53:19.301Z,11.70
2022-10-09T12:56:11.091Z,7.32
2022-10-09T12:58:57.531Z,8.85
2022-10-09T13:01:45.676Z,8.55
2022-10-09T13:04:34.312Z,11.65
2022-10-09T13:07:21.726Z,13.68
2022-10-09T13:10:16.772Z,7.38
2022-10-09T13:13:03.045Z,10.68
2022-10-09T13:15:59.236Z,6.80
2022-10-09T13:18:55.681Z,11.23
2022-10-09T13:21:42.318Z,7.15
2022-10-09T13:24:29.698Z,12.30
2022-10-09T13:27:15.974Z,9.40
2022-10-09T13:30:02.367Z,9.98
2022-10-09T13:32:49.009Z,8.63
2022-10-09T13:35:35.340Z,10.48
2022-10-09T13:38:21.520Z,15.85
2022-10-09T13:41:12.455Z,9.38
2022-10-09T13:43:59.148Z,11.65
2022-10-09T13:46:45.374Z,11.55
2022-10-09T13:49:31.749Z,7.88
2022-10-09T13:52:18.101Z,10.68
2022-10-09T13:55:05.401Z,9.95
2022-10-09T13:57:51.968Z,8.00
2022-10-09T14:00:38.479Z,8.45
2022-10-09T14:03:24.776Z,10.13
2022-10-09T14:06:11.039Z,12.15
2022-10-09T14:08:57.462Z,9.27
2022-10-09T14:11:43.374Z,10.15
2022-10-09T14:14:32.216Z,8.23
2022-10-09T14:17:18.665Z,11.95
2022-10-09T14:20:26.090Z,9.18
2022-10-09T14:23:13.662Z,9.27
2022-10-09T14:26:02.471Z,8.68
2022-10-09T14:28:48.617Z,9.32
2022-10-09T14:31:35.160Z,9.73
2022-10-09T14:34:22.162Z,10.88
2022-10-09T14:37:18.724Z,8.15
2022-10-09T14:40:11.470Z,10.18
2022-10-09T14:42:58.505Z,11.48
2022-10-09T14:45:44.541Z,9.82
2022-10-09T14:48:31.253Z,16.90
2022-10-09T14:51:18.912Z,8.80
2022-10-09T14:54:05.847Z,8.18
2022-10-09T14:56:52.286Z,8.23
2022-10-09T14:59:38.436Z,8.50
2022-10-09T15:02:24.663Z,9.30
2022-10-09T15:05:10.790Z,6.85
2022-10-09T15:07:57.088Z,11.00
2022-10-09T15:10:46.040Z,8.15
2022-10-09T15:13:35.057Z,8.73
2022-10-09T15:16:21.727Z,10.45
2022-10-09T15:19:08.045Z,13.10
2022-10-09T15:21:54.420Z,13.40
2022-10-09T15:24:40.689Z,9.63
2022-10-09T15:27:27.430Z,7.32
2022-10-09T15:30:13.558Z,7.50
2022-10-09T15:33:03.254Z,7.65
2022-10-09T15:35:49.946Z,7.50
2022-10-09T15:38:36.179Z,7.38
2022-10-09T15:41:23.857Z,6.13
2022-10-09T15:44:17.328Z,7.93
2022-10-09T15:47:03.426Z,9.15
2022-10-09T15:49:53.359Z,11.50
2022-10-09T15:52:39.655Z,11.52
2022-10-09T15:55:25.851Z,8.57
2022-10-09T15:58:12.528Z,9.82
2022-10-09T16:01:05.467Z,15.48
2022-10-09T16:03:52.243Z,9.70
2022-10-09T16:06:38.216Z,13.93
2022-10-09T16:09:24.474Z,16.02
2022-10-09T16:12:10.925Z,15.82
2022-10-09T16:14:57.100Z,10.98
2022-10-09T16:17:45.267Z,14.10
2022-10-09T16:20:35.188Z,12.85
2022-10-09T16:23:21.432Z,14.32
2022-10-09T16:26:07.810Z,14.82
2022-10-09T16:28:54.710Z,18.35
2022-10-09T16:31:41.173Z,15.65
2022-10-09T16:34:31.693Z,13.20
2022-10-09T16:37:17.574Z,10.23
2022-10-09T16:40:08.372Z,13.55
2022-10-09T16:42:54.540Z,15.23
2022-10-09T16:45:40.929Z,12.82
2022-10-09T16:48:27.487Z,11.45
2022-10-09T16:51:15.171Z,14.10
2022-10-09T16:54:02.385Z,17.95
2022-10-09T16:56:48.941Z,21.88
2022-10-09T16:59:35.234Z,23.00
2022-10-09T17:02:21.395Z,19.48
2022-10-09T17:05:07.800Z,36.75
2022-10-09T17:07:54.372Z,26.95
2022-10-09T17:10:41.703Z,29.83
2022-10-09T17:13:28.821Z,31.33
2022-10-09T17:16:18.467Z,28.98
2022-10-09T17:19:05.309Z,36.75
2022-10-09T17:22:10.457Z,48.50
2022-10-09T17:25:21.151Z,52.88
2022-10-09T17:28:08.179Z,40.40
2022-10-09T17:30:54.253Z,42.28
2022-10-09T17:33:42.931Z,43.60
2022-10-09T17:36:30.759Z,61.00
2022-10-09T17:39:17.803Z,47.63
2022-10-09T17:42:03.899Z,132.13
2022-10-09T17:44:50.074Z,102.57
2022-10-09T17:47:36.245Z,74.35
2022-10-09T17:50:22.864Z,53.80
2022-10-09T17:53:09.956Z,47.58
2022-10-09T17:55:57.351Z,42.92
2022-10-09T17:58:45.218Z,56.35
2022-10-09T18:01:32.047Z,44.55
2022-10-09T18:04:18.329Z,40.97
2022-10-09T18:07:05.407Z,55.53
2022-10-09T18:09:51.574Z,41.72
2022-10-09T18:12:37.720Z,34.80
2022-10-09T18:15:23.880Z,37.28
2022-10-09T18:18:10.553Z,46.95
2022-10-09T18:21:02.013Z,49.65
2022-10-09T18:23:48.494Z,49.90
2022-10-09T18:26:34.915Z,55.88
2022-10-09T18:29:21.742Z,63.05
2022-10-09T18:32:08.278Z,42.17
2022-10-09T18:34:54.618Z,50.28
2022-10-09T18:37:41.333Z,43.63
2022-10-09T18:40:29.962Z,36.70
2022-10-09T18:43:16.062Z,30.67
2022-10-09T18:46:03.408Z,35.42
2022-10-09T18:48:49.796Z,34.33
2022-10-09T18:51:36.431Z,37.33
2022-10-09T18:54:24.345Z,69.63
2022-10-09T18:57:10.912Z,32.25
2022-10-09T18:59:57.578Z,36.78
2022-10-09T19:02:43.793Z,34.75
2022-10-09T19:05:30.396Z,30.88
2022-10-09T19:08:16.602Z,33.38
2022-10-09T19:11:21.336Z,23.75
2022-10-09T19:14:07.418Z,31.27
2022-10-09T19:16:54.163Z,24.63
2022-10-09T19:19:40.486Z,27.58
2022-10-09T19:22:26.306Z,32.17
2022-10-09T19:25:13.136Z,25.63
2022-10-09T19:27:59.491Z,27.33
2022-10-09T19:30:46.257Z,36.55
2022-10-09T19:33:32.219Z,27.30
2022-10-09T19:36:18.591Z,33.92
2022-10-09T19:39:09.110Z,25.48
2022-10-09T19:41:56.071Z,26.00
2022-10-09T19:44:46.099Z,28.83
2022-10-09T19:47:32.054Z,25.05
2022-10-09T19:50:21.784Z,28.25
2022-10-09T19:53:08.076Z,26.38
2022-10-09T19:55:57.593Z,27.63
2022-10-09T19:58:53.179Z,26.25
2022-10-09T20:01:40.814Z,29.67
2022-10-09T20:04:29.623Z,25.17
2022-10-09T20:07:22.195Z,25.75
2022-10-09T20:10:10.556Z,23.15
2022-10-09T20:13:01.956Z,25.52
2022-10-09T20:15:48.171Z,21.38
2022-10-09T20:18:43.463Z,21.42
2022-10-09T20:21:44.575Z,37.42
2022-10-09T20:24:31.482Z,24.40
2022-10-09T20:27:17.816Z,26.58
2022-10-09T20:30:04.139Z,27.83
2022-10-09T20:32:52.246Z,25.98
2022-10-09T20:35:59.202Z,28.13
2022-10-09T20:38:46.170Z,29.70
2022-10-09T20:41:33.021Z,34.00
2022-10-09T20:44:19.723Z,29.33
2022-10-09T20:47:05.969Z,29.63
2022-10-09T20:49:52.114Z,24.83
2022-10-09T20:52:38.375Z,25.42
2022-10-09T20:55:24.657Z,25.95
2022-10-09T20:58:10.672Z,13.55
2022-10-09T21:00:57.719Z,25.13
2022-10-09T21:03:44.250Z,30.25
2022-10-09T21:06:30.730Z,25.42
2022-10-09T21:09:17.189Z,24.40
2022-10-09T21:12:16.695Z,25.35
2022-10-09T21:15:05.771Z,25.70
2022-10-09T21:17:55.123Z,27.88
2022-10-09T21:20:48.729Z,27.73
2022-10-09T21:23:36.538Z,27.50
2022-10-09T21:26:23.451Z,24.02
2022-10-09T21:29:16.619Z,24.67
2022-10-09T21:32:09.629Z,27.52
2022-10-09T21:34:55.629Z,21.10
2022-10-09T21:37:41.930Z,26.73
2022-10-09T21:40:28.296Z,26.08
2022-10-09T21:43:16.005Z,28.30
2022-10-09T21:46:02.045Z,29.27
2022-10-09T21:48:48.335Z,26.52
2022-10-09T21:51:34.512Z,35.78
2022-10-09T21:54:21.013Z,26.38
2022-10-09T21:57:07.068Z,29.73
2022-10-09T21:59:56.302Z,30.98
2022-10-09T22:02:42.539Z,30.30
2022-10-09T22:05:31.453Z,14.48
2022-10-09T22:08:17.486Z,23.90
2022-10-09T22:11:05.041Z,29.55
2022-10-09T22:13:51.109Z,29.35
2022-10-09T22:16:37.289Z,24.10
2022-10-09T22:19:25.958Z,25.50
2022-10-09T22:22:14.501Z,22.58
2022-10-09T22:25:00.782Z,26.92
2022-10-09T22:27:49.600Z,24.02
2022-10-09T22:30:37.816Z,14.05
2022-10-09T22:33:24.542Z,26.70
2022-10-09T22:36:15.037Z,30.13
2022-10-09T22:39:03.428Z,26.63
2022-10-09T22:41:49.613Z,24.25
2022-10-09T22:44:35.889Z,27.08
2022-10-09T22:47:22.073Z,46.50
2022-10-09T22:50:08.474Z,28.67
2022-10-09T22:52:54.527Z,29.67
2022-10-09T22:55:40.957Z,25.75
2022-10-09T22:58:26.966Z,24.30
2022-10-09T23:01:14.557Z,25.33
2022-10-09T23:04:02.532Z,21.92
2022-10-09T23:06:53.055Z,24.30
2022-10-09T23:09:39.732Z,25.20
2022-10-09T23:12:26.064Z,18.20
2022-10-09T23:15:12.267Z,23.77
2022-10-09T23:17:58.423Z,23.55
2022-10-09T23:20:44.919Z,18.40
2022-10-09T23:23:50.101Z,26.20
2022-10-09T23:26:36.953Z,21.40
2022-10-09T23:29:23.138Z,26.20
2022-10-09T23:32:09.175Z,22.10
2022-10-09T23:34:55.350Z,11.60
2022-10-09T23:37:41.623Z,27.10
2022-10-09T23:40:28.016Z,28.67
2022-10-09T23:43:14.291Z,25.58
2022-10-09T23:46:01.852Z,26.90
2022-10-09T23:49:06.471Z,25.50
2022-10-09T23:51:52.626Z,26.33
2022-10-09T23:54:38.921Z,30.38
2022-10-09T23:57:25.067Z,26.67
